Terminal Aerodrome Forecast
Issued by NWS

Home | Current Version | Previous Version | Text Only | Print | Product List | Glossary On
Versions: 1 2 3 4 5 6 7 8 9 10 11 12 13 14 15 16 17 18 19 20 21 22 23 24 25 26 27 28 29 30 31
000
FTUS43 KDLH 240932 AAB
TAFBRD
TAF AMD
KBRD 240932Z 2410/2506 18004KT 5SM BR VCTS SCT025CB SCT080
      TEMPO 2410/2414 2SM -RA BR BKN007
     FM241400 24004KT P6SM BKN070
     FM241800 22007KT P6SM VCTS SCT035CB BKN070
     FM250100 12004KT P6SM SCT070=

USA.gov is the U.S. government's official web portal to all federal, state and local government web resources and services.